This is the latest recevied weather packets stored in our database for station/object W6ORV. If no packets are shown the sender has not sent any weather packets the latest 1 day(s).
| Time | Temp. | Humidity | Pressure | Rain* | Wind** | Luminosity | Snow |
|---|---|---|---|---|---|---|---|
| 1778034364 | 15.56° C | 70% | 4299.8 hPa | 0 mm | - | 18 W/m² | - |
| 1778034061 | 16.11° C | 70% | 4299.6 hPa | 0 mm | - | 22 W/m² | - |
| 1778033759 | 16.11° C | 68% | 4299.9 hPa | 0 mm | - | 26 W/m² | - |
| 1778033456 | 16.67° C | 66% | 4299.6 hPa | 0 mm | - | 31 W/m² | - |
| 1778033153 | 16.67° C | 66% | 4299.6 hPa | 0 mm | - | 37 W/m² | - |
| 1778032851 | 16.67° C | 65% | 4299.5 hPa | 0 mm | - | 42 W/m² | - |
| 1778032548 | 16.67° C | 64% | 4299.3 hPa | 0 mm | - | 46 W/m² | - |
| 1778032244 | 16.67° C | 64% | 4299.5 hPa | 0 mm | - | 40 W/m² | - |
| 1778031637 | 17.22° C | 63% | 4299.4 hPa | 0 mm | - | 43 W/m² | - |
| 1778031336 | 17.22° C | 63% | 4299.4 hPa | 0 mm | - | 102 W/m² | - |
| 1778031032 | 17.78° C | 63% | 4299.4 hPa | 0 mm | - | 47 W/m² | - |
| 1778030729 | 17.78° C | 62% | 4299.1 hPa | 0 mm | - | 130 W/m² | - |
| 1778030426 | 17.22° C | 63% | 4299.2 hPa | 0 mm | - | 123 W/m² | - |
| 1778030123 | 17.78° C | 64% | 4299.4 hPa | 0 mm | - | 61 W/m² | - |
| 1778029820 | 17.78° C | 63% | 4299.4 hPa | 0 mm | - | 135 W/m² | - |
| 1778029519 | 18.33° C | 63% | 4299.2 hPa | 0 mm | - | 214 W/m² | - |
| 1778029215 | 18.89° C | 61% | 4299.4 hPa | 0 mm | - | 245 W/m² | - |
| 1778028912 | 18.33° C | 61% | 4299.3 hPa | 0 mm | - | 279 W/m² | - |
| 1778028608 | 18.33° C | 63% | 4299.4 hPa | 0 mm | - | 157 W/m² | - |
| 1778028306 | 19.44° C | 60% | 4299.3 hPa | 0 mm | - | 90 W/m² | - |
| 1778027394 | 19.44° C | 53% | 4299.1 hPa | 0 mm | - | 124 W/m² | - |
| 1778027091 | 18.89° C | 55% | 4299.2 hPa | 0 mm | - | 226 W/m² | - |
| 1778026786 | 18.89° C | 56% | 4299.3 hPa | 0 mm | - | 238 W/m² | - |
| 1778024667 | 20° C | 48% | 4299.1 hPa | 0 mm | - | 364 W/m² | - |
| 1778023759 | 19.44° C | 51% | 4299.2 hPa | 0 mm | - | 471 W/m² | - |
* Rain latest hour (hover to see other rain measurements)
** Current wind speed in m/s (hover to see current wind gust speed)